createdAt,value
2018-02-22T00:00:16.465Z,-1.58
2018-02-22T00:02:44.972Z,-1.58
2018-02-22T00:05:13.492Z,-1.57
2018-02-22T00:07:42.822Z,-1.68
2018-02-22T00:10:11.358Z,-1.63
2018-02-22T00:12:39.887Z,-1.61
2018-02-22T00:15:08.408Z,-1.66
2018-02-22T00:17:36.915Z,-1.67
2018-02-22T00:20:05.480Z,-1.70
2018-02-22T00:22:34.021Z,-1.64
2018-02-22T00:25:02.560Z,-1.64
2018-02-22T00:27:31.681Z,-1.66
2018-02-22T00:30:00.219Z,-1.61
2018-02-22T00:32:28.859Z,-1.64
2018-02-22T00:34:57.367Z,-1.61
2018-02-22T00:37:25.872Z,-1.62
2018-02-22T00:39:54.401Z,-1.63
2018-02-22T00:42:22.925Z,-1.65
2018-02-22T00:44:51.499Z,-1.56
2018-02-22T00:47:20.050Z,-1.67
2018-02-22T00:49:48.783Z,-1.61
2018-02-22T00:52:17.307Z,-1.61
2018-02-22T00:54:46.592Z,-1.65
2018-02-22T00:57:15.923Z,-1.65
2018-02-22T00:59:44.461Z,-1.61
2018-02-22T01:02:13.061Z,-1.61
2018-02-22T01:04:42.345Z,-1.65
2018-02-22T01:07:10.883Z,-1.67
2018-02-22T01:09:39.440Z,-1.71
2018-02-22T01:12:07.960Z,-1.69
2018-02-22T01:14:37.240Z,-1.68
2018-02-22T01:17:05.788Z,-1.69
2018-02-22T01:19:35.076Z,-1.69
2018-02-22T01:22:03.652Z,-1.72
2018-02-22T01:24:32.147Z,-1.67
2018-02-22T01:27:01.445Z,-1.72
2018-02-22T01:29:30.739Z,-1.71
2018-02-22T01:31:59.262Z,-1.70
2018-02-22T01:34:27.848Z,-1.67
2018-02-22T01:36:56.383Z,-1.68
2018-02-22T01:39:24.897Z,-1.68
2018-02-22T01:41:53.416Z,-1.76
2018-02-22T01:44:21.977Z,-1.73
2018-02-22T01:46:50.541Z,-1.75
2018-02-22T01:49:19.058Z,-1.74
2018-02-22T01:51:47.583Z,-1.76
2018-02-22T01:54:16.884Z,-1.78
2018-02-22T01:56:46.220Z,-1.82
2018-02-22T01:59:14.802Z,-1.78
2018-02-22T02:01:43.380Z,-1.77
2018-02-22T02:04:11.883Z,-1.78
2018-02-22T02:06:40.413Z,-1.78
2018-02-22T02:09:09.708Z,-1.84
2018-02-22T02:11:38.291Z,-1.83
2018-02-22T02:14:06.812Z,-1.83
2018-02-22T02:16:35.316Z,-1.84
2018-02-22T02:19:03.833Z,-1.85
2018-02-22T02:21:32.402Z,-1.85
2018-02-22T02:24:00.982Z,-1.87
2018-02-22T02:26:29.624Z,-1.89
2018-02-22T02:28:58.234Z,-1.89
2018-02-22T02:31:26.808Z,-1.86
2018-02-22T02:33:55.400Z,-1.88
2018-02-22T02:36:23.957Z,-1.90
2018-02-22T02:38:52.593Z,-1.94
2018-02-22T02:41:21.152Z,-1.97
2018-02-22T02:43:49.733Z,-1.96
2018-02-22T02:46:18.343Z,-1.86
2018-02-22T02:48:46.921Z,-1.93
2018-02-22T02:51:15.541Z,-1.93
2018-02-22T02:53:44.121Z,-1.94
2018-02-22T02:56:12.695Z,-1.94
2018-02-22T02:58:42.048Z,-1.93
2018-02-22T03:01:10.633Z,-1.90
2018-02-22T03:03:39.270Z,-1.98
2018-02-22T03:06:08.590Z,-1.94
2018-02-22T03:08:37.133Z,-1.98
2018-02-22T03:11:05.710Z,-1.96
2018-02-22T03:13:34.278Z,-1.90
2018-02-22T03:16:02.905Z,-2.01
2018-02-22T03:18:32.264Z,-1.99
2018-02-22T03:21:00.834Z,-1.96
2018-02-22T03:23:29.398Z,-1.93
2018-02-22T03:25:57.958Z,-1.96
2018-02-22T03:28:26.588Z,-1.85
2018-02-22T03:30:55.167Z,-1.91
2018-02-22T03:33:23.762Z,-1.88
2018-02-22T03:35:52.316Z,-1.95
2018-02-22T03:38:20.887Z,-1.86
2018-02-22T03:40:49.505Z,-1.89
2018-02-22T03:43:18.080Z,-1.96
2018-02-22T03:45:46.647Z,-1.97
2018-02-22T03:48:15.227Z,-1.95
2018-02-22T03:50:43.787Z,-1.94
2018-02-22T03:53:13.184Z,-2.01
2018-02-22T03:55:42.541Z,-1.91
2018-02-22T03:58:11.118Z,-1.99
2018-02-22T04:00:39.733Z,-1.99
2018-02-22T04:03:08.304Z,-1.98
2018-02-22T04:05:36.931Z,-2.02
2018-02-22T04:08:05.498Z,-1.95
2018-02-22T04:10:34.817Z,-2.03
2018-02-22T04:13:03.446Z,-2.07
2018-02-22T04:15:32.022Z,-2.10
2018-02-22T04:18:00.692Z,-2.08
2018-02-22T04:20:30.122Z,-2.08
2018-02-22T04:22:58.770Z,-2.10
2018-02-22T04:25:27.362Z,-2.04
2018-02-22T04:27:55.983Z,-2.02
2018-02-22T04:30:24.664Z,-2.08
2018-02-22T04:32:53.271Z,-2.07
2018-02-22T04:35:22.626Z,-2.04
2018-02-22T04:37:51.260Z,-2.05
2018-02-22T04:40:20.630Z,-2.09
2018-02-22T04:42:49.291Z,-2.07
2018-02-22T04:45:17.878Z,-2.05
2018-02-22T04:47:46.498Z,-2.04
2018-02-22T04:50:15.123Z,-2.03
2018-02-22T04:52:43.759Z,-1.88
2018-02-22T04:55:12.410Z,-1.94
2018-02-22T04:57:40.981Z,-1.94
2018-02-22T05:00:09.598Z,-1.92
2018-02-22T05:02:38.277Z,-1.91
2018-02-22T05:05:06.899Z,-1.90
2018-02-22T05:07:36.303Z,-1.87
2018-02-22T05:10:05.694Z,-1.94
2018-02-22T05:12:34.321Z,-1.91
2018-02-22T05:15:02.917Z,-1.88
2018-02-22T05:17:31.513Z,-1.82
2018-02-22T05:20:00.159Z,-1.96
2018-02-22T05:22:28.782Z,-1.97
2018-02-22T05:24:57.409Z,-1.97
2018-02-22T05:27:26.795Z,-2.02
2018-02-22T05:29:55.422Z,-1.92
2018-02-22T05:32:24.057Z,-2.07
2018-02-22T05:34:52.690Z,-2.03
2018-02-22T05:37:21.301Z,-2.05
2018-02-22T05:39:49.899Z,-2.05
2018-02-22T05:42:18.562Z,-2.01
2018-02-22T05:44:47.224Z,-2.02
2018-02-22T05:47:15.863Z,-2.04
2018-02-22T05:49:44.463Z,-2.02
2018-02-22T05:52:13.843Z,-2.01
2018-02-22T05:54:42.454Z,-2.05
2018-02-22T05:57:12.033Z,-2.01
2018-02-22T05:59:40.613Z,-2.01
2018-02-22T06:02:09.213Z,-2.02
2018-02-22T06:04:37.826Z,-2.03
2018-02-22T06:07:06.495Z,-1.94
2018-02-22T06:09:35.905Z,-1.94
2018-02-22T06:12:05.270Z,-1.97
2018-02-22T06:14:33.884Z,-2.01
2018-02-22T06:17:03.245Z,-2.05
2018-02-22T06:19:31.906Z,-2.01
2018-02-22T06:22:00.683Z,-2.01
2018-02-22T06:24:29.543Z,-2.05
2018-02-22T06:26:59.083Z,-2.09
2018-02-22T06:29:27.834Z,-2.00
2018-02-22T06:31:57.432Z,-2.00
2018-02-22T06:34:26.166Z,-2.05
2018-02-22T06:36:54.933Z,-2.06
2018-02-22T06:39:23.633Z,-2.09
2018-02-22T06:41:52.391Z,-2.03
2018-02-22T06:44:21.984Z,-1.99
2018-02-22T06:46:50.733Z,-2.00
2018-02-22T06:49:19.458Z,-2.00
2018-02-22T06:51:48.158Z,-2.03
2018-02-22T06:54:17.701Z,-2.05
2018-02-22T06:56:46.557Z,-2.03
2018-02-22T06:59:16.184Z,-2.08
2018-02-22T07:01:44.938Z,-2.08
2018-02-22T07:04:14.501Z,-2.13
2018-02-22T07:06:43.366Z,-2.03
2018-02-22T07:09:11.984Z,-2.14
2018-02-22T07:11:40.624Z,-2.14
2018-02-22T07:14:09.814Z,-2.09
2018-02-22T07:16:39.173Z,-2.13
2018-02-22T07:19:07.786Z,-2.13
2018-02-22T07:21:37.193Z,-2.14
2018-02-22T07:24:06.591Z,-1.97
2018-02-22T07:26:35.946Z,-2.22
2018-02-22T07:29:04.581Z,-2.06
2018-02-22T07:31:33.975Z,-2.21
2018-02-22T07:34:02.625Z,-2.23
2018-02-22T07:36:31.287Z,-2.29
2018-02-22T07:38:59.945Z,-2.30
2018-02-22T07:41:29.303Z,-2.29
2018-02-22T07:43:57.906Z,-2.33
2018-02-22T07:46:26.537Z,-2.41
2018-02-22T07:48:55.205Z,-2.39
2018-02-22T07:51:23.828Z,-2.35
2018-02-22T07:53:52.432Z,-2.35
2018-02-22T07:56:21.093Z,-2.33
2018-02-22T07:58:49.712Z,-2.44
2018-02-22T08:01:18.325Z,-2.42
2018-02-22T08:03:46.968Z,-2.38
2018-02-22T08:06:15.640Z,-2.29
2018-02-22T08:08:44.290Z,-2.27
2018-02-22T08:11:13.913Z,-2.29
2018-02-22T08:13:42.581Z,-2.43
2018-02-22T08:16:11.266Z,-2.37
2018-02-22T08:18:39.922Z,-2.29
2018-02-22T08:21:09.369Z,-2.42
2018-02-22T08:23:38.038Z,-2.24
2018-02-22T08:26:06.731Z,-2.37
2018-02-22T08:28:35.452Z,-2.23
2018-02-22T08:31:04.074Z,-2.33
2018-02-22T08:33:33.521Z,-2.30
2018-02-22T08:36:02.124Z,-2.27
2018-02-22T08:38:30.788Z,-2.18
2018-02-22T08:40:59.420Z,-2.10
2018-02-22T08:43:28.092Z,-2.07
2018-02-22T08:45:56.782Z,-2.04
2018-02-22T08:48:26.192Z,-1.95
2018-02-22T08:50:55.646Z,-1.78
2018-02-22T08:53:24.285Z,-1.92
2018-02-22T08:55:53.662Z,-1.92
2018-02-22T08:58:22.336Z,-1.83
2018-02-22T09:00:51.041Z,-1.85
2018-02-22T09:03:19.707Z,-1.69
2018-02-22T09:05:48.367Z,-1.93
2018-02-22T09:08:17.003Z,-1.75
2018-02-22T09:10:45.625Z,-1.60
2018-02-22T09:13:14.280Z,-1.71
2018-02-22T09:15:43.717Z,-1.82
2018-02-22T09:18:12.410Z,-1.77
2018-02-22T09:20:41.032Z,-1.59
2018-02-22T09:23:09.661Z,-1.68
2018-02-22T09:25:38.296Z,-1.58
2018-02-22T09:28:07.027Z,-1.47
2018-02-22T09:30:35.684Z,-1.42
2018-02-22T09:33:05.082Z,-1.24
2018-02-22T09:35:33.711Z,-1.06
2018-02-22T09:38:02.369Z,-1.33
2018-02-22T09:40:31.783Z,-1.50
2018-02-22T09:43:01.246Z,-1.37
2018-02-22T09:45:29.923Z,-1.44
2018-02-22T09:47:58.591Z,-1.37
2018-02-22T09:50:27.206Z,-1.16
2018-02-22T09:52:55.942Z,-1.39
2018-02-22T09:55:30.868Z,-1.22
2018-02-22T09:57:59.528Z,-1.16
2018-02-22T10:00:28.917Z,-1.00
2018-02-22T10:02:57.553Z,-1.11
2018-02-22T10:05:26.176Z,-1.11
2018-02-22T10:07:54.882Z,-1.00
2018-02-22T10:10:24.356Z,-0.97
2018-02-22T10:12:53.026Z,-1.10
2018-02-22T10:15:21.687Z,-1.05
2018-02-22T10:17:50.306Z,-1.18
2018-02-22T10:20:18.943Z,-1.39
2018-02-22T10:22:47.646Z,-1.31
2018-02-22T10:25:16.274Z,-1.25
2018-02-22T10:27:44.963Z,-1.02
2018-02-22T10:30:13.696Z,-0.95
2018-02-22T10:32:43.082Z,-0.86
2018-02-22T10:35:12.560Z,-0.77
2018-02-22T10:37:41.953Z,-0.66
2018-02-22T10:40:10.680Z,-0.63
2018-02-22T10:42:39.306Z,-0.82
2018-02-22T10:45:07.913Z,-0.60
2018-02-22T10:47:36.606Z,-0.49
2018-02-22T10:50:06.046Z,-0.62
2018-02-22T10:52:35.449Z,-0.58
2018-02-22T10:55:04.069Z,-0.56
2018-02-22T10:57:33.483Z,-0.50
2018-02-22T11:00:02.149Z,-0.40
2018-02-22T11:02:36.297Z,-0.25
2018-02-22T11:05:05.000Z,-0.57
2018-02-22T11:07:34.374Z,-0.63
2018-02-22T11:10:02.992Z,-0.55
2018-02-22T11:12:32.386Z,-0.77
2018-02-22T11:15:01.734Z,-0.55
2018-02-22T11:17:30.415Z,-0.66
2018-02-22T11:19:59.045Z,-0.44
2018-02-22T11:22:27.671Z,-0.59
2018-02-22T11:24:56.463Z,-0.53
2018-02-22T11:27:25.111Z,-0.83
2018-02-22T11:29:54.580Z,-0.46
2018-02-22T11:32:23.220Z,-0.36
2018-02-22T11:34:51.871Z,-0.10
2018-02-22T11:37:20.480Z,-0.15
2018-02-22T11:39:49.139Z,-0.22
2018-02-22T11:42:17.810Z,-0.19
2018-02-22T11:44:46.398Z,-0.20
2018-02-22T11:47:15.054Z,-0.05
2018-02-22T11:49:44.513Z,-0.07
2018-02-22T11:52:13.923Z,-0.16
2018-02-22T11:54:42.604Z,0.07
2018-02-22T11:57:12.018Z,-0.09
2018-02-22T11:59:40.645Z,0.07
2018-02-22T12:02:09.321Z,-0.12
2018-02-22T12:04:38.100Z,-0.31
2018-02-22T12:07:07.641Z,-0.15
2018-02-22T12:09:36.334Z,-0.21
2018-02-22T12:12:06.101Z,0.20
2018-02-22T12:14:34.743Z,0.00
2018-02-22T12:17:03.769Z,0.08
2018-02-22T12:19:32.880Z,-0.03
2018-02-22T12:22:02.467Z,-0.04
2018-02-22T12:24:31.322Z,-0.07
2018-02-22T12:27:01.091Z,-0.18
2018-02-22T12:29:29.937Z,0.12
2018-02-22T12:31:59.549Z,-0.06
2018-02-22T12:34:28.284Z,0.04
2018-02-22T12:36:56.977Z,0.05
2018-02-22T12:39:25.658Z,-0.04
2018-02-22T12:41:54.353Z,0.34
2018-02-22T12:44:23.044Z,0.06
2018-02-22T12:46:51.749Z,0.31
2018-02-22T12:49:21.225Z,0.54
2018-02-22T12:51:49.973Z,0.36
2018-02-22T12:54:18.666Z,0.28
2018-02-22T12:56:47.413Z,0.31
2018-02-22T12:59:19.602Z,0.57
2018-02-22T13:01:48.332Z,0.24
2018-02-22T13:04:17.038Z,0.31
2018-02-22T13:06:45.715Z,0.32
2018-02-22T13:09:14.426Z,0.35
2018-02-22T13:11:43.840Z,0.45
2018-02-22T13:14:12.549Z,0.32
2018-02-22T13:16:41.200Z,0.26
2018-02-22T13:19:09.828Z,0.11
2018-02-22T13:21:38.441Z,0.35
2018-02-22T13:24:07.045Z,0.59
2018-02-22T13:26:36.470Z,0.79
2018-02-22T13:29:05.098Z,0.76
2018-02-22T13:31:33.743Z,0.86
2018-02-22T13:34:20.159Z,0.78
2018-02-22T13:36:48.805Z,0.77
2018-02-22T13:39:18.231Z,0.82
2018-02-22T13:41:46.913Z,0.51
2018-02-22T13:44:33.194Z,0.27
2018-02-22T13:47:02.680Z,0.06
2018-02-22T13:49:49.019Z,0.03
2018-02-22T13:52:17.703Z,0.17
2018-02-22T13:54:47.105Z,0.27
2018-02-22T13:57:20.377Z,0.03
2018-02-22T13:59:49.736Z,0.06
2018-02-22T14:02:29.166Z,-0.18
2018-02-22T14:04:57.847Z,0.02
2018-02-22T14:07:26.511Z,-0.03
2018-02-22T14:09:55.124Z,-0.14
2018-02-22T14:12:23.827Z,-0.26
2018-02-22T14:14:52.468Z,-0.28
2018-02-22T14:17:21.244Z,-0.06
2018-02-22T14:19:49.942Z,-0.20
2018-02-22T14:22:18.733Z,-0.16
2018-02-22T14:24:47.398Z,-0.31
2018-02-22T14:27:16.067Z,-0.31
2018-02-22T14:29:45.459Z,-0.24
2018-02-22T14:32:14.190Z,-0.55
2018-02-22T14:34:42.810Z,-0.54
2018-02-22T14:37:11.439Z,-0.51
2018-02-22T14:39:40.775Z,-0.57
2018-02-22T14:42:10.345Z,-0.50
2018-02-22T14:44:39.045Z,-0.54
2018-02-22T14:47:07.672Z,-0.46
2018-02-22T14:49:36.276Z,-0.43
2018-02-22T14:52:04.883Z,-0.54
2018-02-22T14:54:33.455Z,-0.45
2018-02-22T14:57:02.911Z,-0.36
2018-02-22T14:59:31.492Z,-0.31
2018-02-22T15:02:00.143Z,-0.34
2018-02-22T15:04:28.780Z,-0.57
2018-02-22T15:06:57.416Z,-0.43
2018-02-22T15:09:26.116Z,-0.65
2018-02-22T15:11:54.755Z,-0.57
2018-02-22T15:14:24.140Z,-0.86
2018-02-22T15:16:52.760Z,-0.73
2018-02-22T15:19:22.130Z,-0.79
2018-02-22T15:21:50.799Z,-0.80
2018-02-22T15:24:19.475Z,-0.83
2018-02-22T15:26:48.100Z,-0.86
2018-02-22T15:29:17.474Z,-0.93
2018-02-22T15:31:47.086Z,-0.91
2018-02-22T15:34:15.781Z,-0.99
2018-02-22T15:36:44.385Z,-0.95
2018-02-22T15:39:13.022Z,-0.90
2018-02-22T15:41:41.648Z,-1.03
2018-02-22T15:44:11.028Z,-1.03
2018-02-22T15:46:39.727Z,-0.94
2018-02-22T15:49:13.063Z,-1.06
2018-02-22T15:51:41.840Z,-1.17
2018-02-22T15:54:10.538Z,-1.13
2018-02-22T15:56:39.163Z,-1.17
2018-02-22T15:59:07.789Z,-1.14
2018-02-22T16:01:36.553Z,-1.27
2018-02-22T16:04:05.275Z,-1.22
2018-02-22T16:06:33.909Z,-1.21
2018-02-22T16:09:02.532Z,-1.31
2018-02-22T16:11:31.225Z,-1.31
2018-02-22T16:13:59.854Z,-1.35
2018-02-22T16:16:28.496Z,-1.39
2018-02-22T16:18:58.062Z,-1.38
2018-02-22T16:21:26.747Z,-1.34
2018-02-22T16:23:55.403Z,-1.34
2018-02-22T16:26:24.011Z,-1.42
2018-02-22T16:28:52.647Z,-1.42
2018-02-22T16:31:21.208Z,-1.50
2018-02-22T16:33:50.594Z,-1.42
2018-02-22T16:36:19.949Z,-1.45
2018-02-22T16:38:49.411Z,-1.48
2018-02-22T16:41:18.056Z,-1.57
2018-02-22T16:43:46.643Z,-1.56
2018-02-22T16:46:15.220Z,-1.55
2018-02-22T16:48:43.869Z,-1.63
2018-02-22T16:51:12.442Z,-1.66
2018-02-22T16:53:41.012Z,-1.64
2018-02-22T17:58:05.735Z,-2.15
2018-02-22T18:00:35.069Z,-2.07
2018-02-22T18:03:03.605Z,-2.16
2018-02-22T18:05:32.831Z,-2.16
2018-02-22T18:08:02.147Z,-2.15
2018-02-22T18:10:30.702Z,-2.14
2018-02-22T18:13:00.016Z,-2.16
2018-02-22T18:15:28.619Z,-2.20
2018-02-22T18:17:57.192Z,-2.19
2018-02-22T18:20:25.759Z,-2.21
2018-02-22T18:22:54.370Z,-2.14
2018-02-22T18:25:22.933Z,-2.12
2018-02-22T18:27:51.474Z,-2.12
2018-02-22T18:30:19.999Z,-2.10
2018-02-22T18:32:48.622Z,-2.18
2018-02-22T18:35:17.190Z,-2.15
2018-02-22T18:37:51.180Z,-2.15
2018-02-22T18:40:25.215Z,-2.11
2018-02-22T18:42:53.760Z,-2.03
2018-02-22T18:45:22.354Z,-2.18
2018-02-22T18:47:50.917Z,-2.19
2018-02-22T18:50:20.191Z,-2.18
2018-02-22T18:52:48.837Z,-2.19
2018-02-22T18:55:17.401Z,-2.24
2018-02-22T18:57:45.909Z,-2.13
2018-02-22T19:00:14.407Z,-2.16
2018-02-22T19:02:42.921Z,-2.26
2018-02-22T19:05:12.358Z,-2.19
2018-02-22T19:07:40.917Z,-2.18
2018-02-22T19:10:10.335Z,-2.16
2018-02-22T19:12:39.022Z,-2.18
2018-02-22T19:15:08.016Z,-2.17
2018-02-22T19:17:36.771Z,-2.21
2018-02-22T19:20:05.288Z,-2.23
2018-02-22T19:22:33.833Z,-2.24
2018-02-22T19:25:02.388Z,-2.23
2018-02-22T19:27:30.947Z,-2.23
2018-02-22T19:29:59.545Z,-2.25
2018-02-22T19:32:28.092Z,-2.26
2018-02-22T19:34:56.656Z,-2.28
2018-02-22T19:37:26.003Z,-2.27
2018-02-22T19:39:54.565Z,-2.31
2018-02-22T19:42:23.332Z,-2.24
2018-02-22T19:44:52.640Z,-2.18
2018-02-22T19:47:21.188Z,-2.24
2018-02-22T19:49:49.805Z,-2.27
2018-02-22T19:52:19.126Z,-2.28
2018-02-22T19:54:47.794Z,-2.29
2018-02-22T19:57:16.356Z,-2.23
2018-02-22T19:59:44.923Z,-2.32
2018-02-22T20:02:13.493Z,-2.32
2018-02-22T20:04:42.048Z,-2.35
2018-02-22T20:07:10.641Z,-2.32
2018-02-22T20:09:39.199Z,-2.33
2018-02-22T20:12:07.701Z,-2.39
2018-02-22T20:14:36.913Z,-2.32
2018-02-22T20:17:05.605Z,-2.46
2018-02-22T20:19:34.218Z,-2.44
2018-02-22T20:22:02.793Z,-2.52
2018-02-22T20:24:31.375Z,-2.52
2018-02-22T20:26:59.937Z,-2.65
2018-02-22T20:29:28.475Z,-2.53
2018-02-22T20:31:57.124Z,-2.43
2018-02-22T20:34:26.507Z,-2.51
2018-02-22T20:36:55.108Z,-2.65
2018-02-22T20:39:23.690Z,-2.63
2018-02-22T20:41:52.272Z,-2.44
2018-02-22T20:44:20.892Z,-2.56
2018-02-22T20:46:49.882Z,-2.62
2018-02-22T20:49:18.458Z,-2.42
2018-02-22T20:51:57.021Z,-2.62
2018-02-22T20:54:25.662Z,-2.65
2018-02-22T20:56:54.267Z,-2.58
2018-02-22T21:34:18.697Z,-2.49
2018-02-22T21:36:47.955Z,-2.34
2018-02-22T21:39:16.665Z,-2.51
2018-02-22T21:41:45.395Z,-2.52
2018-02-22T21:44:14.512Z,-2.58
2018-02-22T21:46:44.012Z,-2.57
2018-02-22T21:49:12.635Z,-2.54
2018-02-22T21:51:41.387Z,-2.55
2018-02-22T21:54:10.108Z,-2.52
2018-02-22T21:56:39.743Z,-2.70
2018-02-22T21:59:09.642Z,-2.62
2018-02-22T22:01:39.787Z,-2.56
2018-02-22T22:04:08.518Z,-2.68
2018-02-22T22:06:37.215Z,-2.64
2018-02-22T22:09:05.973Z,-2.63
2018-02-22T22:11:34.632Z,-2.67
2018-02-22T22:14:04.117Z,-2.52
2018-02-22T22:16:32.844Z,-2.59
2018-02-22T22:19:03.022Z,-2.62
2018-02-22T22:21:32.384Z,-2.58
2018-02-22T22:24:04.056Z,-2.61
2018-02-22T22:26:32.810Z,-2.64
2018-02-22T22:29:02.072Z,-2.71
2018-02-22T22:31:30.777Z,-2.51
2018-02-22T22:34:00.185Z,-2.62
2018-02-22T22:36:29.620Z,-2.68
2018-02-22T22:38:58.271Z,-2.75
2018-02-22T22:41:27.653Z,-2.72
2018-02-22T22:43:59.117Z,-2.62
2018-02-22T22:46:28.554Z,-2.70
2018-02-22T22:48:57.192Z,-2.81
2018-02-22T22:51:25.859Z,-2.75
2018-02-22T22:53:55.091Z,-2.68
2018-02-22T22:56:23.777Z,-2.74
2018-02-22T22:58:54.050Z,-2.64
2018-02-22T23:01:22.850Z,-2.53
2018-02-22T23:03:51.514Z,-2.69
2018-02-22T23:06:20.194Z,-2.65
2018-02-22T23:08:48.933Z,-2.59
2018-02-22T23:11:17.609Z,-2.52
2018-02-22T23:13:47.415Z,-2.49
2018-02-22T23:16:16.110Z,-2.44
2018-02-22T23:18:44.775Z,-2.46
2018-02-22T23:21:13.467Z,-2.50
2018-02-22T23:23:42.852Z,-2.57
2018-02-22T23:26:11.650Z,-2.60
2018-02-22T23:28:41.708Z,-2.60
2018-02-22T23:31:12.008Z,-2.52
2018-02-22T23:33:42.487Z,-2.62
2018-02-22T23:36:11.227Z,-2.57
2018-02-22T23:38:40.034Z,-2.62
2018-02-22T23:41:12.805Z,-2.59
2018-02-22T23:43:42.276Z,-2.72
2018-02-22T23:46:10.983Z,-2.70
2018-02-22T23:48:39.615Z,-2.50
2018-02-22T23:51:08.332Z,-2.58
2018-02-22T23:53:37.070Z,-2.62
2018-02-22T23:56:11.261Z,-2.58
2018-02-22T23:58:41.202Z,-2.62
